Gallipolis, Ohio
Current Conditions -  °F | °C
As of 10:35 AM on Monday 22 Dec 2014 (Local Time) from K3I2 Reporting Station
Clear Clear  
Wind Chill: 41°   Ceiling: Unl
Heat Index: 41°   Visibility: 10mi
Dew Point: 34°   Wind: 0mph
Humidity: 76%   Direction: NA
Pressure: 30.07"   Gusts: NA
Location:  38.81°N, 82.2°W
Report Text: K3I2 221535Z AUTO 00000KT 10SM CLR 05/01 A3007 RMK AO2
Loading
Personal Weather Stations






























Interactive Weather Map New forecast layout! Learn more

10-Day Weather Forecast

Advertisements
Track Severe Weather on mobile